createdAt,value
2019-02-17T00:00:34.468Z,5.37
2019-02-17T00:03:03.356Z,5.13
2019-02-17T00:05:32.297Z,5.90
2019-02-17T00:08:01.108Z,6.23
2019-02-17T00:10:30.142Z,8.70
2019-02-17T00:12:59.035Z,6.43
2019-02-17T00:15:27.817Z,7.83
2019-02-17T00:17:56.714Z,7.00
2019-02-17T00:20:25.509Z,7.80
2019-02-17T00:22:54.558Z,5.27
2019-02-17T00:25:23.349Z,8.00
2019-02-17T00:27:52.439Z,4.77
2019-02-17T00:30:21.232Z,5.90
2019-02-17T00:32:50.109Z,5.87
2019-02-17T00:35:19.000Z,5.70
2019-02-17T00:37:48.158Z,4.83
2019-02-17T00:40:17.216Z,5.67
2019-02-17T00:42:45.999Z,5.67
2019-02-17T00:45:14.801Z,6.10
2019-02-17T00:47:43.664Z,6.13
2019-02-17T00:50:12.635Z,6.13
2019-02-17T00:52:41.796Z,7.30
2019-02-17T00:55:10.951Z,6.80
2019-02-17T00:57:40.065Z,5.73
2019-02-17T01:00:09.568Z,5.87
2019-02-17T01:02:38.440Z,6.20
2019-02-17T01:05:07.418Z,5.80
2019-02-17T01:07:36.205Z,5.43
2019-02-17T01:10:05.440Z,5.67
2019-02-17T01:12:34.858Z,6.50
2019-02-17T01:15:03.812Z,6.53
2019-02-17T01:17:32.688Z,6.33
2019-02-17T01:20:01.559Z,6.20
2019-02-17T01:22:30.366Z,5.90
2019-02-17T01:24:59.237Z,6.40
2019-02-17T01:27:28.377Z,5.90
2019-02-17T01:29:57.183Z,4.60
2019-02-17T01:32:25.977Z,6.50
2019-02-17T01:34:54.761Z,5.60
2019-02-17T01:37:23.688Z,6.73
2019-02-17T01:39:53.348Z,6.70
2019-02-17T01:42:22.568Z,6.80
2019-02-17T01:44:51.464Z,6.70
2019-02-17T01:47:20.416Z,7.90
2019-02-17T01:49:49.642Z,7.33
2019-02-17T01:52:18.606Z,6.43
2019-02-17T01:54:47.403Z,5.03
2019-02-17T01:57:16.215Z,5.77
2019-02-17T01:59:45.005Z,6.20
2019-02-17T02:02:13.823Z,5.13
2019-02-17T02:04:42.692Z,6.87
2019-02-17T02:07:11.803Z,6.13
2019-02-17T02:09:40.643Z,5.97
2019-02-17T02:12:09.469Z,5.30
2019-02-17T02:14:38.518Z,5.50
2019-02-17T02:17:07.471Z,6.73
2019-02-17T02:19:36.961Z,7.17
2019-02-17T02:22:06.006Z,7.17
2019-02-17T02:24:34.860Z,6.87
2019-02-17T02:27:03.733Z,5.73
2019-02-17T02:29:40.771Z,5.77
2019-02-17T02:32:03.499Z,5.37
2019-02-17T02:34:32.309Z,5.80
2019-02-17T02:37:01.122Z,7.30
2019-02-17T02:39:30.165Z,6.00
2019-02-17T02:41:59.010Z,5.67
2019-02-17T02:44:27.827Z,5.40
2019-02-17T02:46:56.709Z,6.00
2019-02-17T02:49:25.585Z,6.80
2019-02-17T02:51:54.401Z,5.40
2019-02-17T02:54:23.272Z,4.80
2019-02-17T02:56:52.140Z,5.97
2019-02-17T02:59:21.125Z,5.70
2019-02-17T03:01:49.921Z,6.03
2019-02-17T03:04:18.814Z,5.73
2019-02-17T03:06:50.679Z,6.90
2019-02-17T03:09:19.814Z,5.40
2019-02-17T03:11:48.600Z,6.10
2019-02-17T03:14:17.575Z,4.70
2019-02-17T03:16:46.529Z,5.87
2019-02-17T03:19:15.438Z,5.83
2019-02-17T03:21:44.330Z,5.37
2019-02-17T03:24:13.235Z,6.60
2019-02-17T03:26:42.089Z,5.03
2019-02-17T03:29:11.017Z,6.80
2019-02-17T03:31:39.830Z,5.50
2019-02-17T03:34:08.649Z,5.80
2019-02-17T03:36:37.691Z,5.37
2019-02-17T03:39:07.128Z,5.53
2019-02-17T03:41:35.984Z,5.83
2019-02-17T03:44:04.927Z,5.77
2019-02-17T03:46:33.789Z,5.80
2019-02-17T03:49:02.573Z,5.33
2019-02-17T03:51:31.397Z,6.40
2019-02-17T03:54:00.186Z,7.10
2019-02-17T03:56:28.977Z,5.63
2019-02-17T03:58:58.117Z,5.30
2019-02-17T04:01:27.009Z,5.70
2019-02-17T04:03:56.186Z,4.30
2019-02-17T04:06:25.056Z,5.73
2019-02-17T04:08:54.004Z,4.60
2019-02-17T04:11:22.892Z,4.53
2019-02-17T04:13:51.694Z,5.67
2019-02-17T04:16:20.566Z,5.27
2019-02-17T04:18:49.693Z,5.00
2019-02-17T04:21:18.472Z,5.67
2019-02-17T04:23:47.333Z,7.83
2019-02-17T04:26:16.178Z,6.00
2019-02-17T04:28:45.001Z,6.67
2019-02-17T04:31:13.792Z,4.53
2019-02-17T04:33:42.837Z,6.30
2019-02-17T04:36:11.644Z,5.20
2019-02-17T04:38:40.428Z,5.90
2019-02-17T04:41:09.282Z,6.00
2019-02-17T04:43:38.088Z,6.87
2019-02-17T04:46:06.912Z,5.10
2019-02-17T04:48:35.941Z,6.43
2019-02-17T04:51:04.802Z,6.70
2019-02-17T04:53:34.158Z,6.00
2019-02-17T04:56:03.400Z,5.07
2019-02-17T04:58:32.571Z,6.57
2019-02-17T05:01:01.481Z,5.50
2019-02-17T05:03:30.651Z,5.43
2019-02-17T05:05:59.585Z,6.43
2019-02-17T05:08:28.377Z,5.17
2019-02-17T05:10:57.188Z,5.63
2019-02-17T05:13:25.985Z,5.80
2019-02-17T05:15:54.820Z,5.13
2019-02-17T05:18:23.589Z,5.97
2019-02-17T05:20:52.418Z,4.30
2019-02-17T05:23:21.229Z,5.80
2019-02-17T05:25:50.157Z,4.60
2019-02-17T05:28:18.973Z,4.80
2019-02-17T05:30:52.819Z,5.50
2019-02-17T05:33:18.433Z,4.80
2019-02-17T05:35:47.264Z,4.73
2019-02-17T05:38:16.311Z,4.30
2019-02-17T05:40:45.159Z,5.40
2019-02-17T05:43:13.948Z,4.90
2019-02-17T05:45:42.744Z,5.57
2019-02-17T05:48:11.909Z,4.87
2019-02-17T05:50:40.711Z,5.23
2019-02-17T05:53:09.513Z,5.40
2019-02-17T05:55:38.557Z,5.60
2019-02-17T05:58:07.341Z,4.87
2019-02-17T06:00:37.939Z,4.70
2019-02-17T06:03:06.768Z,4.90
2019-02-17T06:05:35.620Z,4.53
2019-02-17T06:08:04.561Z,5.20
2019-02-17T06:10:33.357Z,4.90
2019-02-17T06:13:02.189Z,6.17
2019-02-17T06:15:30.962Z,5.83
2019-02-17T06:17:59.845Z,4.47
2019-02-17T06:20:28.641Z,4.50
2019-02-17T06:22:57.429Z,4.90
2019-02-17T06:25:26.249Z,4.30
2019-02-17T06:27:55.324Z,4.20
2019-02-17T06:30:24.193Z,4.50
2019-02-17T06:32:53.077Z,4.50
2019-02-17T06:35:21.951Z,4.73
2019-02-17T06:37:50.776Z,5.20
2019-02-17T06:40:19.824Z,5.00
2019-02-17T06:42:48.849Z,4.77
2019-02-17T06:45:19.655Z,4.10
2019-02-17T06:47:48.308Z,4.07
2019-02-17T06:50:17.095Z,5.50
2019-02-17T06:52:45.947Z,5.83
2019-02-17T06:55:22.984Z,4.30
2019-02-17T06:57:51.811Z,4.47
2019-02-17T07:00:25.021Z,5.10
2019-02-17T07:02:53.842Z,5.10
2019-02-17T07:05:34.261Z,4.00
2019-02-17T07:08:03.183Z,4.67
2019-02-17T07:10:31.952Z,4.93
2019-02-17T07:13:00.868Z,4.30
2019-02-17T07:15:29.645Z,4.37
2019-02-17T07:17:59.288Z,5.50
2019-02-17T07:20:28.149Z,3.97
2019-02-17T07:22:57.016Z,5.43
2019-02-17T07:25:30.168Z,5.43
2019-02-17T07:27:56.542Z,5.00
2019-02-17T07:30:25.377Z,4.70
2019-02-17T07:32:54.153Z,4.30
2019-02-17T07:35:23.460Z,3.20
2019-02-17T07:37:52.292Z,4.77
2019-02-17T07:40:21.368Z,4.73
2019-02-17T07:42:50.217Z,3.63
2019-02-17T07:45:19.084Z,3.77
2019-02-17T07:47:48.115Z,3.77
2019-02-17T07:50:16.912Z,3.60
2019-02-17T07:52:45.684Z,4.37
2019-02-17T07:55:14.523Z,3.30
2019-02-17T07:57:43.324Z,5.00
2019-02-17T08:00:12.364Z,3.57
2019-02-17T08:02:41.294Z,3.30
2019-02-17T08:05:10.386Z,3.90
2019-02-17T08:07:39.849Z,4.30
2019-02-17T08:10:08.944Z,4.50
2019-02-17T08:12:37.808Z,7.40
2019-02-17T08:15:07.489Z,4.50
2019-02-17T08:17:36.767Z,5.37
2019-02-17T08:20:06.825Z,5.10
2019-02-17T08:22:35.607Z,4.83
2019-02-17T08:25:04.563Z,5.40
2019-02-17T08:27:33.417Z,4.23
2019-02-17T08:30:02.237Z,4.50
2019-02-17T08:32:31.291Z,5.23
2019-02-17T08:35:00.161Z,5.63
2019-02-17T08:37:29.176Z,5.03
2019-02-17T08:39:57.988Z,5.17
2019-02-17T08:42:26.745Z,6.27
2019-02-17T08:44:55.613Z,5.43
2019-02-17T08:47:24.412Z,4.83
2019-02-17T08:49:53.260Z,5.50
2019-02-17T08:52:22.183Z,5.17
2019-02-17T08:54:51.045Z,4.73
2019-02-17T08:57:20.136Z,5.03
2019-02-17T08:59:49.409Z,6.07
2019-02-17T09:02:18.237Z,5.73
2019-02-17T09:04:47.036Z,4.93
2019-02-17T09:07:15.908Z,5.60
2019-02-17T09:09:44.778Z,7.60
2019-02-17T09:12:13.941Z,6.50
2019-02-17T09:14:42.723Z,6.60
2019-02-17T09:17:11.544Z,5.63
2019-02-17T09:19:40.350Z,4.50
2019-02-17T09:22:09.514Z,4.80
2019-02-17T09:24:38.372Z,5.90
2019-02-17T09:27:07.407Z,5.00
2019-02-17T09:29:36.196Z,5.60
2019-02-17T09:32:05.022Z,5.90
2019-02-17T09:34:33.788Z,5.23
2019-02-17T09:37:02.578Z,5.17
2019-02-17T09:39:31.639Z,5.60
2019-02-17T09:42:00.420Z,4.80
2019-02-17T09:44:29.225Z,5.23
2019-02-17T09:46:58.092Z,5.77
2019-02-17T09:49:27.121Z,5.17
2019-02-17T09:51:56.000Z,6.60
2019-02-17T09:54:24.954Z,6.27
2019-02-17T09:56:55.040Z,7.03
2019-02-17T09:59:23.859Z,5.77
2019-02-17T10:01:52.968Z,6.60
2019-02-17T10:04:21.884Z,5.30
2019-02-17T10:06:50.677Z,6.50
2019-02-17T10:09:19.460Z,6.30
2019-02-17T10:11:48.241Z,5.67
2019-02-17T10:14:17.024Z,5.70
2019-02-17T10:16:45.877Z,6.10
2019-02-17T10:19:14.718Z,5.83
2019-02-17T10:21:43.577Z,6.37
2019-02-17T10:24:12.665Z,6.13
2019-02-17T10:26:41.478Z,6.27
2019-02-17T10:29:10.267Z,6.17
2019-02-17T10:31:39.056Z,8.40
2019-02-17T10:34:07.939Z,6.47
2019-02-17T10:36:36.845Z,6.07
2019-02-17T10:39:06.495Z,6.37
2019-02-17T10:41:35.279Z,5.77
2019-02-17T10:44:04.402Z,7.60
2019-02-17T10:46:33.284Z,5.57
2019-02-17T10:49:02.175Z,6.50
2019-02-17T10:51:31.138Z,6.60
2019-02-17T10:53:59.957Z,8.10
2019-02-17T10:56:28.828Z,6.47
2019-02-17T10:58:57.740Z,6.40
2019-02-17T11:01:26.733Z,6.47
2019-02-17T11:04:21.137Z,6.30
2019-02-17T11:06:50.043Z,6.50
2019-02-17T11:09:24.737Z,6.83
2019-02-17T11:11:53.744Z,6.53
2019-02-17T11:14:22.889Z,5.97
2019-02-17T11:16:52.489Z,6.60
2019-02-17T11:19:21.333Z,7.90
2019-02-17T11:21:50.531Z,6.13
2019-02-17T11:24:19.509Z,6.30
2019-02-17T11:26:48.327Z,7.30
2019-02-17T11:29:17.347Z,6.30
2019-02-17T11:31:46.201Z,6.07
2019-02-17T11:34:15.020Z,7.10
2019-02-17T11:36:43.950Z,10.00
2019-02-17T11:39:19.912Z,7.43
2019-02-17T11:41:48.861Z,9.33
2019-02-17T11:44:17.797Z,6.30
2019-02-17T11:46:46.861Z,6.10
2019-02-17T11:49:15.852Z,6.20
2019-02-17T11:51:44.904Z,5.97
2019-02-17T11:54:13.681Z,6.00
2019-02-17T11:56:42.458Z,6.57
2019-02-17T11:59:11.240Z,6.37
2019-02-17T12:01:40.165Z,5.60
2019-02-17T12:04:09.236Z,6.07
2019-02-17T12:06:38.102Z,5.83
2019-02-17T12:09:08.263Z,5.67
2019-02-17T12:11:37.393Z,4.93
2019-02-17T12:14:06.202Z,5.10
2019-02-17T12:16:37.262Z,5.27
2019-02-17T12:19:05.638Z,4.90
2019-02-17T12:21:42.513Z,4.47
2019-02-17T12:24:33.573Z,4.47
2019-02-17T12:27:09.870Z,4.63
2019-02-17T12:29:44.405Z,4.67
2019-02-17T12:32:13.277Z,5.10
2019-02-17T12:34:42.071Z,4.10
2019-02-17T12:37:10.947Z,5.63
2019-02-17T12:39:39.748Z,5.00
2019-02-17T12:42:08.614Z,4.90
2019-02-17T12:44:37.489Z,5.00
2019-02-17T12:47:06.369Z,5.40
2019-02-17T12:49:35.242Z,5.50
2019-02-17T12:52:04.131Z,4.33
2019-02-17T12:54:32.965Z,4.70
2019-02-17T12:57:01.859Z,4.43
2019-02-17T12:59:30.672Z,5.07
2019-02-17T13:01:59.469Z,4.37
2019-02-17T13:04:28.394Z,4.57
2019-02-17T13:06:57.185Z,5.07
2019-02-17T13:09:26.001Z,4.63
2019-02-17T13:11:55.026Z,4.60
2019-02-17T13:14:23.829Z,4.43
2019-02-17T13:16:53.015Z,4.60
2019-02-17T13:19:21.884Z,4.73
2019-02-17T13:21:50.764Z,16.37
2019-02-17T13:24:19.577Z,10.20
2019-02-17T13:26:48.637Z,4.47
2019-02-17T13:29:17.509Z,4.53
2019-02-17T13:31:46.292Z,4.67
2019-02-17T13:34:15.392Z,3.87
2019-02-17T13:36:44.324Z,3.97
2019-02-17T13:39:13.134Z,3.83
2019-02-17T13:41:42.001Z,4.50
2019-02-17T13:44:10.796Z,3.70
2019-02-17T13:46:39.713Z,3.40
2019-02-17T13:49:08.512Z,3.13
2019-02-17T13:51:37.309Z,2.90
2019-02-17T13:54:06.125Z,3.50
2019-02-17T13:56:34.914Z,2.70
2019-02-17T13:59:03.976Z,2.60
2019-02-17T14:01:32.780Z,2.10
2019-02-17T14:04:01.633Z,2.70
2019-02-17T14:06:30.470Z,2.10
2019-02-17T14:08:59.522Z,1.70
2019-02-17T14:11:28.296Z,2.10
2019-02-17T14:13:57.383Z,2.27
2019-02-17T14:16:26.300Z,1.90
2019-02-17T14:18:55.166Z,1.80
2019-02-17T14:21:24.073Z,1.90
2019-02-17T14:23:53.055Z,1.70
2019-02-17T14:26:22.069Z,1.87
2019-02-17T14:28:50.932Z,1.60
2019-02-17T14:31:19.722Z,1.60
2019-02-17T14:33:58.095Z,1.60
2019-02-17T14:36:19.036Z,1.70
2019-02-17T14:38:48.012Z,1.80
2019-02-17T14:41:16.887Z,1.50
2019-02-17T14:43:46.145Z,1.80
2019-02-17T14:46:15.195Z,1.53
2019-02-17T14:48:44.346Z,1.57
2019-02-17T14:51:13.457Z,1.30
2019-02-17T14:53:42.524Z,1.63
2019-02-17T14:56:11.666Z,1.40
2019-02-17T14:58:40.455Z,1.70
2019-02-17T15:01:09.507Z,1.70
2019-02-17T15:03:38.301Z,1.90
2019-02-17T15:06:07.363Z,2.50
2019-02-17T15:08:36.193Z,2.00
2019-02-17T15:11:05.398Z,1.63
2019-02-17T15:13:34.550Z,2.33
2019-02-17T15:16:03.526Z,2.10
2019-02-17T15:18:32.342Z,2.05
2019-02-17T15:21:01.485Z,2.10
2019-02-17T15:23:30.568Z,1.60
2019-02-17T15:25:59.629Z,1.57
2019-02-17T15:28:28.746Z,2.50
2019-02-17T15:30:57.581Z,2.17
2019-02-17T15:33:26.633Z,2.00
2019-02-17T15:35:55.553Z,2.10
2019-02-17T15:38:24.362Z,2.43
2019-02-17T15:40:53.151Z,1.77
2019-02-17T15:43:21.953Z,2.07
2019-02-17T15:45:50.748Z,2.93
2019-02-17T15:48:19.551Z,2.57
2019-02-17T15:50:48.849Z,1.97
2019-02-17T15:53:18.180Z,2.10
2019-02-17T15:55:47.076Z,2.90
